Relevés horaires Bouveret (Suisse)


Relevés horaires à Bouveret - Vendredi 23 Févr. 2018
Heure UTC1 Température [°C] Vent [km/h] Hum. [%] Pres.4 [hPa] Visi. [Km] Nébu. [octa] Préc.5 [mm] Cond.
2m. Res. Ros. Dir.2 Vit. Moy. Raf.3
23:00 0.8 -2.6 -3.6 N 11.1 -- 22.2 72 1012.8(0.1/3h) -- -- -- --
22:00 0.9 -3.9 -3.5 NNO 18.5 -- 25.9 72 1012.9(0.4/3h) -- -- -- --
21:00 0.9 -1.5 -3.6 ONO 7.4 -- 27.8 72 1012.8(0.6/3h) -- -- -- --
20:00 1.2 -2.6 -3.0 NO 13.0 -- 22.2 73 1012.6(1.0/3h) -- -- -- --
19:00 1.1 -2.7 -3.4 ONO 13.0 -- 27.8 72 1012.4(1.1/3h) -- -- -- --
18:00 1.3 -2.4 -3.1 NO 13.0 -- 22.2 72 1012.1(1.0/3h) -- -- -- --
17:00 1.3 -2.8 -3.4 ONO 14.8 -- 22.2 71 1011.6(0.4/3h) -- -- -- --
16:00 1.4 -2.3 -3.5 ONO 13.0 -- 20.4 70 1011.2(0.2/3h) -- -- -- --
15:00 1.5 -2.5 -3.6 O 14.8 -- 22.2 69 1011(0.0/3h) -- -- -- --
14:00 1.5 -2.2 -3.8 O 13.0 -- 22.2 68 1011.1(-0.1/3h) -- -- -- --
13:00 1.7 -2.6 -3.5 ONO 16.7 -- 22.2 68 1011(-0.1/3h) -- -- -- --
13:00 1.7 -2.6 -3.5 ONO 16.7 -- 22.2 68 1011(-0.1/3h) -- -- -- --
13:00 1.7 -2.6 -3.5 ONO 16.7 -- 22.2 68 1011(-0.1/3h) -- -- -- --
12:00 1.7 -1.9 -3.7 ONO 13.0 -- 24.1 67 1011(0.0/3h) -- -- -- --
12:00 1.7 -1.9 -3.7 ONO 13.0 -- 24.1 67 1011(0.0/3h) -- -- -- --
11:00 1.6 -1.2 -4.4 NO 9.3 -- 16.7 64 1011.2(0.3/3h) -- -- -- --
11:00 1.6 -1.2 -4.4 NO 9.3 -- 16.7 64 1011.2(0.3/3h) -- -- -- --
10:00 1.4 -1.9 -4.3 NNO 11.1 -- 22.2 66 1011.1(0.3/3h) -- -- -- --
09:00 0.9 -0.8 -3.7 SSE 5.6 -- 11.1 71 1011.1(0.4/3h) -- -- -- --
09:00 0.9 -0.8 -3.7 SSE 5.6 -- 11.1 71 1011.1(0.4/3h) -- -- -- --
08:00 0.4 -2.1 -4.0 SSE 7.4 -- 11.1 72 1011.1(0.3/3h) -- -- -- --
07:00 0.4 -1.4 -3.7 SSE 5.6 -- 11.1 74 1011(0.1/3h) -- -- -- --
06:00 0.5 -2 -4.3 SSE 7.4 -- 18.5 70 1010.8(-0.5/3h) -- -- -- --
05:00 0.4 -1.4 -3.1 SE 5.6 -- 5.6 77 1010.8(-0.9/3h) -- -- -- --

1 Coordinated Universal Time. Actuellement il est 18:00 locale et 16:00 UTC.

2 Le vent souffle depuis la direction indiquée vers la direction oposée.

3 Les rafales max. sont disponible 40 min après l'heure du relevé.

4 Pour les stations d'altitude (plus de 600m) le géopotentiel du niveau le plus proche de la pression obligatoire est indiqué.

5 Les stations disposant d'un diffuseur peuvent indiquer "trace". Cela signifie que des précipitations ont touchés le sol mais que la quantité est inférieure à 0.1 mm.

Copyright

Les données affichées sur cette page sont la propriété exclusive de Météo Suisse.

Récapitulatif de la journée
Température [°C] Vent [km/h] Ensoleillement4 [h] Precipitations totale5 [mm] Pression [Hpa]
Min1 Max.2 Moy.3 Max. Min Max.
0.3 1.8 0 27.8 0 h 0 min 0 1010.8 1012.9

1 Température minimale relevée entre 18:00 UTC la veille et 18:00 UTC le jour donné.

2 Température maximale relevée entre 06:00 UTC le jour donné et 06:00 UTC le lendemain.

3 Vent moyen de la journée basé sur les relevés horaires.

4 Ensoleillement en heures relevé entre 06:00 UTC la veille et 06:00 UTC le jour donné.

5 Précipitations totales tombées entre 06:00 UTC la jour donné et 06:00 UTC le lendemain.

Graphiques horaires